Monterey, CA

8:40 PM PST on November 22, 2014 (GMT -0800)
Salinas Municipal | Change Station
CLOSE
Current Station
Airport
Location: Salinas,
Elevation: 85 ft
Nearby Weather Stations

Elev 85 ft 36.66 °N, 121.61 °W | Updated 8 minutes ago

Partly Cloudy
Partly Cloudy
55 °F
Feels Like 55 °F
N
5
Wind Variable Wind from SW

Today
High -- | Low -- °F
--% Chance of Precip.
Yesterday
High -- | Low -- °F
Precip. -- in
6:52 AM 4:54 PM
New Moon, 1% visible
Pressure 30.19 in
Visibility 9.0 miles
Clouds Scattered Clouds 700 ft
Dew Point 52 °F
Humidity 88%
Rainfall 0.08 in
Snow Depth Not available.
UV 0 out of 12
Pollen .40 out of 12
Air Quality Not available.
Flu Activity Not available.
SPECI KSNS 230432Z 23004KT 9SM SCT007 13/11 A3019 RMK AO2

More Conditions Fewer Conditions

Pressure 30.19 in
Visibility 9.0 miles
Clouds Scattered Clouds 700 ft
Dew Point 52 °F
Humidity 88%
Rainfall 0.08 in
Snow Depth Not available.
UV 0 out of 12
Pollen .40 out of 12
Air Quality Not available.
Flu Activity Not available.
SPECI KSNS 230432Z 23004KT 9SM SCT007 13/11 A3019 RMK AO2

More Conditions Fewer Conditions

10-Day Weather Forecast

Almanac

Astronomy

Nov. 22, 2014 Rise Set
Actual Time
Civil Twilight
Nautical Twilight
Astronomical Twilight
Moon
Length of Visible Light
Length of Day
Tomorrow will be .
, % of the Moon is Illuminated

Today's Extremes

State Highs State Lows

Community

WunderPhotos

Upload Photos

1,773,003 photos uploaded!

WunderBlogs® & News

Nearby

Air Quality

  Air Quality AQ Index Pollutant
Not available.

Snow Depth

Station Depth Elevation

Earthquake Activity

City Distance Mag. Time & Date
Minimum magnitude displayed is 2.5.

Coastal Water Temperatures

Place Temperature

Nearby Weather Stations